Promised Land, New York
Current Conditions -  °F | °C
As of 12:56 PM on Sunday 25 Jan 2015 (Local Time) from KGON Reporting Station
Few Clouds Few Clouds  
Wind Chill: 30°   Ceiling: Unl
Heat Index: 40°   Visibility: 10mi
Dew Point: 18°   Wind: 21mph
Humidity: 41%   Direction: 300°WNW
Pressure: 29.68"   Gusts: 29mph
Location:  40.9764°N, 72.1316°W
Report Text: KGON 251756Z 30018G25KT 10SM FEW049 04/M08 A2968 RMK AO2 SLP051 T00441078 10050 21011 51009 $
Loading
Personal Weather Stations






























Interactive Weather Map New forecast layout! Learn more

10-Day Weather Forecast

Advertisements
Track Severe Weather on mobile